Flight Track Log - Related Links

Times and Time Zones

All times are in EDT time to prevent confusion due to time zone crossing. See the UAL464 flight status page for this flight to view local times or setup timezone preferences in your user account.

Time Position Orientation Groundspeed Altitude Reporting Facility
EDT Latitude Longitude Course Direction KTS MPH feet Rate Location/Type
Tue 10:24:57 AM 39.8167 -104.6500 67° East 190 219 6,500  Level Denver TRACON
Tue 10:25:57 AM 39.7667 -104.6000 142° Southeast 234 269 7,800 1,632 Climbing Denver TRACON
Tue 10:26:51 AM 39.7000 -104.5500 150° Southeast 287 330 9,600 2,167 Climbing Denver TRACON
Tue 10:27:00 AM 39.8667 -104.2236 90° East  Level FlightAware Approximate
Tue 10:27:09 AM 39.6828 -104.5308 139° Southeast 295 339 10,400  Level Denver Center
Tue 10:28:00 AM 39.8667 -104.0755 90° East  Level FlightAware Approximate
Tue 10:28:11 AM 39.6681 -104.4269 100° East 301 346 13,100  Level Denver Center
Tue 10:29:00 AM 39.8667 -103.9274 90° East  Level FlightAware Approximate
Tue 10:29:12 AM 39.6967 -104.3069 73° East 337 388 14,300  Level Denver Center
Tue 10:30:00 AM 39.8679 -103.7796 67° East  Level FlightAware Approximate
Tue 10:30:14 AM 39.7378 -104.1825 67° East 382 440 15,600  Level Denver Center
Tue 10:31:16 AM 39.7800 -104.0522 67° East 395 455 17,700 1,839 Climbing Denver Center
Tue 10:32:18 AM 39.8264 -103.9075 67° East 405 466 19,400 1,548 Climbing Denver Center
Tue 10:33:20 AM 39.8719 -103.7650 67° East 423 487 20,900 1,500 Climbing Denver Center
Tue 10:34:22 AM 39.8989 -103.6014 78° East 429 494 22,500 1,597 Climbing Denver Center
Tue 10:35:24 AM 39.9169 -103.4408 82° East 443 510 24,200 1,500 Climbing Denver Center
Tue 10:36:26 AM 39.9353 -103.2794 82° East 444 511 25,600 1,161 Climbing Denver Center
Tue 10:37:28 AM 39.9533 -103.1133 82° East 455 524 26,600 968 Climbing Denver Center
Tue 10:38:30 AM 39.9725 -102.9444 82° East 467 537 27,600 1,113 Climbing Denver Center
Tue 10:39:32 AM 39.9900 -102.7742 82° East 470 541 28,900 1,355 Climbing Denver Center
Tue 10:40:34 AM 40.0086 -102.6025 82° East 464 534 30,400 1,392 Climbing Denver Center
Tue 10:41:37 AM 40.0281 -102.4178 82° East 460 529 31,800 1,152 Climbing Denver Center
Tue 10:42:39 AM 40.0450 -102.2606 82° East 458 527 32,800 1,065 Climbing Denver Center
Tue 10:43:41 AM 40.0628 -102.0769 83° East 457 526 34,000 919 Climbing Denver Center
Tue 10:44:43 AM 40.0781 -101.9183 83° East 460 529 34,700 484 Climbing Denver Center
Tue 10:45:45 AM 40.0972 -101.7350 82° East 459 528 35,000 145 Climbing Denver Center
Tue 10:46:47 AM 40.1133 -101.5772 82° East 459 528 35,000  Level Denver Center
Tue 10:47:49 AM 40.1294 -101.3914 83° East 463 533 35,000  Level Denver Center
Tue 10:48:51 AM 40.1453 -101.2344 82° East 458 527 35,000  Level Denver Center
Tue 10:50:05 AM 40.1619 -101.0497 83° East 459 528 35,000  Level Denver Center
Tue 10:51:07 AM 40.1814 -100.8392 83° East 459 528 35,000  Level Denver Center
Tue 10:52:09 AM 40.1956 -100.6792 83° East 463 533 35,000  Level Denver Center
Tue 10:53:11 AM 40.2233 -100.4972 79° East 462 532 35,000  Level Denver Center
Tue 10:54:13 AM 40.2550 -100.3431 75° East 461 531 35,000  Level Denver Center
Tue 10:55:15 AM 40.2911 -100.1608 75° East 464 534 35,000  Level Denver Center
Tue 10:56:17 AM 40.3225 -100.0061 75° East 463 533 35,000  Level Denver Center
Tue 10:57:19 AM 40.3558 -99.8392 75° East 468 539 35,000  Level Denver Center
Tue 10:58:21 AM 40.3883 -99.6764 75° East 464 534 35,000  Level Denver Center
Tue 10:59:23 AM 40.4197 -99.5111 76° East 468 539 35,000  Level Denver Center
Tue 11:00:25 AM 40.4586 -99.3156 75° East 464 534 35,000  Level Denver Center
Tue 11:01:39 AM 40.4906 -99.1528 75° East 463 533 35,000  Level Denver Center
Tue 11:02:24 AM 40.5206 -98.9881 76° East 465 535 35,000  Level Minneapolis Center
Tue 11:03:26 AM 40.5525 -98.8231 76° East 467 537 35,000  Level Minneapolis Center
Tue 11:04:28 AM 40.5836 -98.6581 76° East 468 539 35,000  Level Minneapolis Center
Tue 11:05:30 AM 40.6081 -98.5258 76° East 468 539 35,000  Level Minneapolis Center
Tue 11:06:32 AM 40.6442 -98.3253 77° East 471 542 35,000  Level Minneapolis Center
Tue 11:07:34 AM 40.6742 -98.1586 77° East 471 542 35,000  Level Minneapolis Center
Tue 11:08:36 AM 40.7117 -97.9586 76° East 471 542 35,000  Level Minneapolis Center
Tue 11:09:38 AM 40.7408 -97.7911 77° East 471 542 35,000  Level Minneapolis Center
Tue 11:10:40 AM 40.7706 -97.6242 77° East 470 541 35,000  Level Minneapolis Center
Tue 11:11:42 AM 40.8003 -97.4558 77° East 471 542 35,000  Level Minneapolis Center
Tue 11:12:44 AM 40.8289 -97.2817 78° East 472 543 35,000  Level Minneapolis Center
Tue 11:13:45 AM 40.8533 -97.1483 76° East 470 541 35,000  Level Minneapolis Center
Tue 11:14:48 AM 40.8886 -96.9450 77° East 472 543 35,000  Level Minneapolis Center
Tue 11:15:50 AM 40.9233 -96.7422 77° East 472 543 35,000  Level Minneapolis Center
Tue 11:16:52 AM 40.9528 -96.5739 77° East 473 544 35,000  Level Minneapolis Center
Tue 11:17:54 AM 40.9836 -96.4067 76° East 471 542 35,000  Level Minneapolis Center
Tue 11:18:55 AM 41.0136 -96.2383 77° East 473 544 35,000  Level Minneapolis Center
Tue 11:19:57 AM 41.0364 -96.1064 77° East 470 541 35,000  Level Minneapolis Center
Tue 11:20:59 AM 41.0711 -95.9056 77° East 471 542 35,000  Level Minneapolis Center
Tue 11:22:01 AM 41.1050 -95.7042 77° East 472 543 35,000  Level Minneapolis Center
Tue 11:23:03 AM 41.1339 -95.5353 77° East 472 543 35,000  Level Minneapolis Center
Tue 11:24:05 AM 41.1633 -95.3667 77° East 472 543 35,000  Level Minneapolis Center
Tue 11:25:07 AM 41.1911 -95.1978 78° East 472 543 35,000  Level Minneapolis Center
Tue 11:26:08 AM 41.2192 -95.0289 77° East 471 542 35,000  Level Minneapolis Center
Tue 11:27:10 AM 41.2522 -94.8261 78° East 470 541 35,000  Level Minneapolis Center
Tue 11:28:12 AM 41.2789 -94.6564 78° East 469 540 35,000  Level Minneapolis Center
Tue 11:29:14 AM 41.3064 -94.4867 78° East 471 542 35,000  Level Minneapolis Center
Tue 11:30:16 AM 41.3333 -94.3164 78° East 472 543 35,000  Level Minneapolis Center
Tue 11:31:18 AM 41.3614 -94.1378 78° East 469 540 35,000  Level Minneapolis Center
Tue 11:32:20 AM 41.3872 -93.9694 78° East 468 539 35,000  Level Minneapolis Center
Tue 11:33:21 AM 41.4122 -93.8011 79° East 467 537 35,000  Level Minneapolis Center
Tue 11:34:23 AM 41.4378 -93.6331 78° East 466 536 35,000  Level Minneapolis Center
Tue 11:35:25 AM 41.4556 -93.4631 82° East 466 536 35,000  Level Minneapolis Center
Tue 11:36:27 AM 41.4744 -93.2583 83° East 466 536 35,000  Level Minneapolis Center
Tue 11:37:29 AM 41.4878 -93.1239 82° East 463 533 35,000  Level Minneapolis Center
Tue 11:38:31 AM 41.5061 -92.9250 83° East 456 525 35,000  Level Minneapolis Center
Tue 11:39:33 AM 41.5219 -92.7575 83° East 456 525 35,000  Level Minneapolis Center
Tue 11:40:35 AM 41.5364 -92.5914 83° East 455 524 35,000  Level Minneapolis Center
Tue 11:41:37 AM 41.5536 -92.3928 83° East 454 522 35,000  Level Minneapolis Center
Tue 11:42:27 AM 41.5650 -92.2644 83° East 447 514 35,000  Level Chicago Center
Tue 11:43:29 AM 41.5786 -92.1022 84° East 445 512 35,000  Level Chicago Center
Tue 11:44:31 AM 41.5919 -91.9392 84° East 446 513 35,000  Level Chicago Center
Tue 11:45:32 AM 41.6058 -91.7786 83° East 444 511 35,000  Level Chicago Center
Tue 11:46:34 AM 41.6217 -91.5817 84° East 447 514 35,000  Level Chicago Center
Tue 11:47:36 AM 41.6339 -91.4181 84° East 449 517 35,000  Level Chicago Center
Tue 11:48:38 AM 41.6472 -91.2556 84° East 447 514 35,000  Level Chicago Center
Tue 11:49:40 AM 41.6594 -91.0925 84° East 448 516 35,000  Level Chicago Center
Tue 11:50:42 AM 41.6714 -90.9308 84° East 445 512 35,000  Level Chicago Center
Tue 11:51:44 AM 41.6858 -90.7344 84° East 446 513 35,000  Level Chicago Center
Tue 11:52:45 AM 41.6961 -90.5853 85° East 448 516 35,000  Level Chicago Center
Tue 11:53:47 AM 41.7086 -90.4183 84° East 449 517 35,000  Level Chicago Center
Tue 11:54:49 AM 41.7219 -90.2183 85° East 448 516 35,000  Level Chicago Center
Tue 11:55:51 AM 41.7328 -90.0536 85° East 444 511 35,000  Level Chicago Center
Tue 11:56:53 AM 41.7442 -89.8894 85° East 442 509 35,000  Level Chicago Center
Tue 11:57:55 AM 41.7544 -89.7264 85° East 439 505 35,000  Level Chicago Center
Tue 11:58:57 AM 41.7669 -89.5458 85° East 445 512 35,000  Level Chicago Center
Tue 11:59:59 AM 41.7756 -89.3858 86° East 439 505 35,000  Level Chicago Center
Tue 12:01:01 PM 41.7850 -89.2228 86° East 440 506 35,000  Level Chicago Center
Tue 12:02:03 PM 41.7947 -89.0653 85° East 429 494 35,000  Level Chicago Center
Tue 12:03:05 PM 41.8036 -88.9033 86° East 434 499 35,000  Level Chicago Center
Tue 12:04:06 PM 41.8144 -88.7114 86° East 433 498 35,000  Level Chicago Center
Tue 12:05:08 PM 41.8233 -88.5517 86° East 431 496 35,000  Level Chicago Center
Tue 12:06:10 PM 41.8306 -88.3919 86° East 430 495 35,000  Level Chicago Center
Tue 12:07:12 PM 41.8392 -88.2308 86° East 431 496 35,000  Level Chicago Center
Tue 12:08:14 PM 41.8472 -88.0714 86° East 428 493 35,000  Level Chicago Center
Tue 12:09:16 PM 41.8547 -87.9131 86° East 424 488 35,000  Level Chicago Center
Tue 12:10:18 PM 41.8622 -87.7550 86° East 425 489 35,000  Level Chicago Center
Tue 12:11:20 PM 41.8703 -87.5669 87° East 421 484 35,000  Level Chicago Center
Tue 12:12:22 PM 41.8769 -87.4122 87° East 419 482 35,000  Level Chicago Center
Tue 12:13:24 PM 41.8836 -87.2553 87° East 422 486 35,000  Level Chicago Center
Tue 12:14:26 PM 41.8897 -87.1008 87° East 417 480 35,000  Level Chicago Center
Tue 12:15:28 PM 41.8956 -86.9458 87° East 418 481 35,000  Level Chicago Center
Tue 12:16:30 PM 41.9028 -86.7911 86° East 419 482 35,000  Level Chicago Center
Tue 12:17:32 PM 41.9089 -86.6108 87° East 421 484 35,000  Level Chicago Center
Tue 12:18:34 PM 41.9147 -86.4542 87° East 422 486 35,000  Level Chicago Center
Tue 12:19:36 PM 41.9197 -86.2978 87° East 422 486 35,000  Level Chicago Center
Tue 12:20:39 PM 41.9250 -86.1417 87° East 419 482 35,000  Level Chicago Center
Tue 12:21:41 PM 41.9297 -85.9850 88° East 420 483 35,000  Level Chicago Center
Tue 12:22:43 PM 41.9353 -85.7947 88° East 423 487 35,000  Level Chicago Center
Tue 12:23:45 PM 41.9400 -85.6356 88° East 424 488 35,000  Level Chicago Center
Tue 12:24:47 PM 41.9447 -85.4778 88° East 421 484 35,000  Level Chicago Center
Tue 12:25:49 PM 41.9489 -85.3231 88° East 413 475 35,000  Level Chicago Center
Tue 12:26:21 PM 41.9533 -85.2269 86° East 410 472 35,000  Level Cleveland Center
Tue 12:27:21 PM 41.9533 -85.0733 90° East 410 472 35,000  Level Cleveland Center
Tue 12:28:21 PM 41.9508 -84.9197 91° East 410 472 35,000  Level Cleveland Center
Tue 12:29:21 PM 41.9522 -84.7689 89° East 405 466 35,000  Level Cleveland Center
Tue 12:30:21 PM 41.9514 -84.6181 90° East 405 466 35,000  Level Cleveland Center
Tue 12:31:21 PM 41.9508 -84.4586 90° East 405 466 35,000  Level Cleveland Center
Tue 12:32:21 PM 41.9475 -84.3078 92° East 405 466 35,000  Level Cleveland Center
Tue 12:33:21 PM 41.9414 -84.1706 93° East 405 466 35,000  Level Cleveland Center
Tue 12:34:21 PM 41.9397 -84.0169 91° East 405 466 35,000  Level Cleveland Center
Tue 12:35:21 PM 41.9381 -83.8633 91° East 405 466 35,000  Level Cleveland Center
Tue 12:36:21 PM 41.9361 -83.7125 91° East 405 466 35,000  Level Cleveland Center
Tue 12:37:21 PM 41.9322 -83.5419 92° East 405 466 35,000  Level Cleveland Center
Tue 12:38:21 PM 41.9339 -83.3911 89° East 412 474 35,000  Level Cleveland Center
Tue 12:39:21 PM 41.9314 -83.2347 91° East 407 468 35,000  Level Cleveland Center
Tue 12:40:21 PM 41.9322 -83.0981 89° East 407 468 35,000  Level Cleveland Center
Tue 12:41:21 PM 41.9294 -82.9417 91° East 407 468 35,000 550 Level Cleveland Center
Tue 12:42:21 PM 41.9283 -82.7908 91° East 407 468 36,100 1,000 Climbing Cleveland Center
Tue 12:43:21 PM 41.9250 -82.6372 92° East 407 468 37,000 450 Climbing Cleveland Center
Tue 12:44:21 PM 41.9233 -82.4919 91° East 401 461 37,000  Level Cleveland Center
Tue 12:45:21 PM 41.9217 -82.3356 91° East 406 467 37,000  Level Cleveland Center
Tue 12:46:21 PM 41.9217 -82.1850 90° East 406 467 37,000  Level Cleveland Center
Tue 12:47:21 PM 41.9217 -82.0369 90° East 401 461 37,000  Level Cleveland Center
Tue 12:48:21 PM 41.9172 -81.8806 92° East 410 472 37,000  Level Cleveland Center
Tue 12:49:21 PM 41.9064 -81.7158 95° East 410 472 37,000  Level Cleveland Center
Tue 12:50:21 PM 41.8931 -81.5678 97° East 404 465 37,000  Level Cleveland Center
Tue 12:51:21 PM 41.8797 -81.4169 97° East 409 471 37,000  Level Cleveland Center
Tue 12:52:21 PM 41.8661 -81.2661 97° East 409 471 37,000  Level Cleveland Center
Tue 12:53:21 PM 41.8544 -81.1183 96° East 409 471 37,000  Level Cleveland Center
Tue 12:54:21 PM 41.8383 -80.9678 98° East 409 471 37,000  Level Cleveland Center
Tue 12:55:21 PM 41.8242 -80.8339 98° East 409 471 37,000  Level Cleveland Center
Tue 12:56:21 PM 41.8097 -80.6778 97° East 415 478 37,000  Level Cleveland Center
Tue 12:57:21 PM 41.7953 -80.5275 97° East 410 472 37,000  Level Cleveland Center
Tue 12:58:21 PM 41.7806 -80.3772 97° East 410 472 37,000  Level Cleveland Center
Tue 12:59:21 PM 41.7636 -80.2242 98° East 410 472 37,000  Level Cleveland Center
Tue 01:00:21 PM 41.7503 -80.0683 96° East 410 472 37,000  Level Cleveland Center
Tue 01:01:21 PM 41.7308 -79.9014 99° East 410 472 37,000  Level Cleveland Center
Tue 01:02:21 PM 41.7153 -79.7514 98° East 405 466 37,000  Level Cleveland Center
Tue 01:03:21 PM 41.6994 -79.6014 98° East 410 472 37,000  Level Cleveland Center
Tue 01:04:21 PM 41.6833 -79.4489 98° East 410 472 37,000  Level Cleveland Center
Tue 01:05:21 PM 41.6672 -79.2961 98° East 410 472 37,000  Level Cleveland Center
Tue 01:06:21 PM 41.6486 -79.1436 99° East 410 472 37,000  Level Cleveland Center
Tue 01:07:21 PM 41.6322 -78.9914 98° East 410 472 37,000  Level Cleveland Center
Tue 01:08:21 PM 41.6153 -78.8389 98° East 410 472 37,000  Level Cleveland Center
Tue 01:09:21 PM 41.5983 -78.6867 98° East 410 472 37,000  Level Cleveland Center
Tue 01:10:21 PM 41.5811 -78.5344 99° East 410 472 37,000  Level Cleveland Center
Tue 01:11:43 PM 41.5575 -78.3369 99° East 419 482 37,000 -2,535 Level New York Center
Tue 01:12:43 PM 41.5400 -78.1853 99° East 414 476 31,000 -2,542 Descending New York Center
Tue 01:13:41 PM 41.5206 -78.0278 99° East 419 482 32,000  Climbing New York Center
Tue 01:14:41 PM 41.4992 -77.8647 100° East 447 514 31,000 -500 Descending New York Center
Tue 01:15:41 PM 41.4753 -77.7017 101° East 454 522 31,000  Level New York Center
Tue 01:16:42 PM 41.4514 -77.5386 101° East 454 522 31,000  Level New York Center
Tue 01:17:42 PM 41.4272 -77.3756 101° East 454 522 31,000 -407 Level New York Center
Tue 01:18:40 PM 41.4028 -77.2128 101° East 449 517 30,200 -908 Descending New York Center
Tue 01:19:41 PM 41.3783 -77.0472 101° East 449 517 29,200 -992 Descending New York Center
Tue 01:20:41 PM 41.3533 -76.8900 102° East 449 517 28,200 -976 Descending New York Center
Tue 01:21:44 PM 41.3242 -76.7244 103° East 444 511 27,200 -950 Descending New York Center
Tue 01:22:41 PM 41.2817 -76.5717 110° East 444 511 26,300 -1,261 Descending New York Center
Tue 01:23:43 PM 41.2392 -76.4161 110° East 449 517 24,700 -2,146 Descending New York Center
Tue 01:24:44 PM 41.1964 -76.2664 111° Southeast 449 517 21,900 -2,821 Descending New York Center
Tue 01:25:40 PM 41.1592 -76.1200 109° East 430 495 19,200 -2,462 Descending New York Center
Tue 01:26:41 PM 41.1239 -75.9822 109° East 405 466 17,100 -1,686 Descending New York Center
Tue 01:27:41 PM 41.0861 -75.8444 110° East 399 459 15,800 -1,289 Descending New York Center
Tue 01:28:42 PM 41.0500 -75.7125 110° East 388 447 14,500 -1,289 Descending New York Center
Tue 01:29:42 PM 41.0192 -75.5975 110° East 378 435 13,200 -1,250 Descending New York Center
Tue 01:30:42 PM 40.9808 -75.4628 111° Southeast 362 417 12,000 -1,091 Descending New York Center
Tue 01:31:43 PM 40.9517 -75.3592 110° East 344 396 11,000 -1,059 Descending New York Center
Tue 01:32:41 PM 40.9206 -75.2472 110° East 316 364 9,900 -1,271 Descending New York Center
Tue 01:33:41 PM 40.8947 -75.1550 110° East 280 322 8,500 -1,388 Descending New York Center
Tue 01:34:42 PM 40.8669 -75.0653 112° Southeast 269 310 7,100 -738 Descending New York Center
Tue 01:35:43 PM 40.8364 -74.9894 118° Southeast 259 298 7,000 -50 Descending New York Center
Tue 01:36:43 PM 40.7931 -74.9128 127° Southeast 259 298 7,000  Level New York Center
Tue 01:37:41 PM 40.7631 -74.8150 112° Southeast 259 298 7,000  Level New York Center
Tue 01:38:41 PM 40.7556 -74.7322 97° East 251 289 7,000  Level New York Center
Tue 01:39:42 PM 40.7714 -74.6347 78° East 250 288 7,000 -462 Level New York Center
Tue 01:40:25 PM 40.8167 -74.6167 17° North 238 274 6,200 -583 Descending New York TRACON
Tue 01:41:25 PM 40.8833 -74.5833 21° North 237 273 6,000 -156 Descending New York TRACON
Tue 01:41:42 PM 40.8958 -74.5842 357° North 229 264 6,000  Level New York Center
Tue 01:42:42 PM 40.9528 -74.5625 16° North 229 264 6,000  Level New York Center
Tue 01:43:43 PM 41.0222 -74.5389 14° North 229 264 6,000  Level New York Center
Tue 01:44:41 PM 41.0856 -74.5150 16° North 229 264 6,000 -101 Level New York Center
Tue 01:45:42 PM 41.0903 -74.4325 86° East 188 216 5,800 -496 Descending New York Center
Tue 01:46:42 PM 41.0842 -74.3581 96° East 202 232 5,000 -466 Descending New York Center
Tue 01:47:25 PM 41.0667 -74.3167 119° Southeast 200 230 5,000 -350 Level New York TRACON
Tue 01:48:25 PM 41.0167 -74.3000 166° South 186 214 4,400 -526 Descending New York TRACON
Tue 01:49:19 PM 40.9833 -74.2500 131° Southeast 185 213 4,000 -200 Descending New York TRACON
Tue 01:50:25 PM 40.9500 -74.1833 123° Southeast 184 212 4,000 -333 Level New York TRACON
Tue 01:51:25 PM 40.9167 -74.1333 131° Southeast 182 209 3,300 -500 Descending New York TRACON
Tue 01:52:25 PM 40.8833 -74.0833 131° Southeast 185 213 3,000 -350 Descending New York TRACON
Tue 01:53:25 PM 40.8333 -74.0667 166° South 185 213 2,600 -400 Descending New York TRACON

Login

Don't have an account? Register now (free) for customized features, flight alerts, and more!